Time;durP1;ratioP1;P1;durP2;ratioP2;P2;SDS_P1;SDS_P2;PMS_P1;PMS_P2;Temp;Humidity;BMP_temperature;BMP_pressure;BME280_temperature;BME280_humidity;BME280_pressure;Samples;Min_cycle;Max_cycle;Signal;HPM_P1;HPM_P2
2022/06/04 00:00:59;;;;;;;6.03;4.17;;;18.50;99.90;;;;;;4997402;28;20447;-45
2022/06/04 00:03:27;;;;;;;5.00;4.30;;;18.50;99.90;;;;;;4997426;28;20917;-45
2022/06/04 00:05:57;;;;;;;3.50;3.00;;;18.60;99.90;;;;;;4993562;28;20444;-46
2022/06/04 00:08:26;;;;;;;3.63;3.33;;;18.50;99.90;;;;;;4996839;28;20453;-45
2022/06/04 00:16:29;;;;;;;4.63;4.03;;;18.30;99.90;;;;;;4996726;28;20506;-45
2022/06/04 00:18:57;;;;;;;4.70;4.20;;;18.40;99.90;;;;;;4995981;28;20478;-46
2022/06/04 00:21:24;;;;;;;4.13;3.80;;;18.40;99.90;;;;;;4996334;28;20443;-44
2022/06/04 00:23:52;;;;;;;3.83;3.53;;;18.30;99.90;;;;;;4996065;28;20500;-46
2022/06/04 00:26:19;;;;;;;5.03;3.57;;;18.20;99.90;;;;;;4996576;28;20439;-43
2022/06/04 00:28:48;;;;;;;4.87;3.90;;;18.20;99.90;;;;;;4996007;28;20873;-45
2022/06/04 00:31:16;;;;;;;4.83;3.83;;;18.10;99.90;;;;;;4996375;28;20641;-42
2022/06/04 00:33:44;;;;;;;4.23;3.93;;;18.10;99.90;;;;;;4995913;28;20678;-49
2022/06/04 00:36:12;;;;;;;4.80;4.37;;;18.00;99.90;;;;;;4996350;28;20473;-49
2022/06/04 00:38:39;;;;;;;4.07;3.77;;;18.00;99.90;;;;;;4995328;28;20484;-49
2022/06/04 00:41:16;;;;;;;5.13;4.63;;;18.00;99.90;;;;;;4996059;28;20457;-47
2022/06/04 00:43:58;;;;;;;3.53;3.23;;;18.00;99.90;;;;;;4996174;28;20532;-49
2022/06/04 00:46:39;;;;;;;3.80;3.57;;;18.00;99.90;;;;;;4995971;28;20435;-43
2022/06/04 00:49:14;;;;;;;4.77;3.63;;;17.90;99.90;;;;;;4995742;28;20689;-42
2022/06/04 00:51:44;;;;;;;5.00;4.50;;;18.00;99.90;;;;;;4994466;28;20428;-49
2022/06/04 00:54:12;;;;;;;3.43;3.13;;;18.10;99.90;;;;;;4995806;28;20424;-45
2022/06/04 00:57:12;;;;;;;4.73;4.10;;;18.00;99.90;;;;;;4995672;28;20842;-47
2022/06/04 01:00:20;;;;;;;5.83;4.07;;;18.00;99.90;;;;;;4982396;28;20440;-46
2022/06/04 01:02:53;;;;;;;4.27;3.93;;;17.90;99.90;;;;;;4966890;28;20663;-48
2022/06/04 01:06:02;;;;;;;4.10;3.77;;;17.90;99.90;;;;;;4994396;28;20851;-45
2022/06/04 01:09:10;;;;;;;4.10;3.77;;;17.80;99.90;;;;;;4946152;28;20422;-48
2022/06/04 01:15:16;;;;;;;4.40;4.10;;;17.70;99.90;;;;;;4988145;28;20690;-46
2022/06/04 01:17:51;;;;;;;5.00;4.60;;;17.80;99.90;;;;;;4961013;28;20470;-46
2022/06/04 01:20:25;;;;;;;4.67;4.30;;;17.80;99.90;;;;;;4995904;28;20442;-49
2022/06/04 01:22:58;;;;;;;4.53;4.23;;;17.80;99.90;;;;;;4995492;28;20488;-45
2022/06/04 01:25:30;;;;;;;6.80;5.00;;;17.80;99.90;;;;;;4996026;28;20482;-43
2022/06/04 01:28:04;;;;;;;4.73;4.33;;;17.80;99.90;;;;;;4995867;28;20502;-43
2022/06/04 01:30:38;;;;;;;4.53;3.80;;;17.60;99.90;;;;;;4992435;28;20442;-47
2022/06/04 01:33:29;;;;;;;4.20;3.80;;;17.60;99.90;;;;;;4995816;28;20553;-43
2022/06/04 01:36:05;;;;;;;7.80;4.07;;;17.60;99.90;;;;;;4995938;28;20585;-45
2022/06/04 01:38:32;;;;;;;4.67;4.27;;;17.60;99.90;;;;;;4995153;28;20450;-48
2022/06/04 01:41:08;;;;;;;3.63;3.43;;;17.60;99.90;;;;;;4995645;28;20549;-48
2022/06/04 01:43:48;;;;;;;4.20;3.90;;;17.60;99.90;;;;;;4996042;28;20482;-49
2022/06/04 01:46:20;;;;;;;3.77;3.47;;;17.60;99.90;;;;;;4999200;28;20417;-49
2022/06/04 01:48:58;;;;;;;5.10;3.97;;;17.60;99.90;;;;;;4999149;28;20446;-46
2022/06/04 01:51:29;;;;;;;4.60;4.20;;;17.50;99.90;;;;;;4999093;28;20680;-46
2022/06/04 01:54:03;;;;;;;4.30;3.90;;;17.60;99.90;;;;;;4999658;28;20474;-45
2022/06/04 01:56:46;;;;;;;5.13;3.90;;;17.70;99.90;;;;;;4990900;28;20444;-42
2022/06/04 01:59:36;;;;;;;5.93;3.97;;;17.80;99.90;;;;;;4998083;28;20735;-44
2022/06/04 02:02:09;;;;;;;5.03;4.40;;;17.80;99.90;;;;;;4998997;28;20509;-47
2022/06/04 02:04:40;;;;;;;4.27;3.87;;;17.70;99.90;;;;;;4998009;28;20478;-45
2022/06/04 02:07:32;;;;;;;4.90;4.50;;;17.80;99.90;;;;;;4998987;28;20831;-45
2022/06/04 02:10:13;;;;;;;4.27;3.87;;;17.90;99.90;;;;;;4981312;28;20417;-43
2022/06/04 02:12:43;;;;;;;5.43;5.00;;;17.90;99.90;;;;;;4998063;28;20480;-46
2022/06/04 02:15:14;;;;;;;5.47;4.63;;;18.00;99.90;;;;;;4997819;28;20554;-49
2022/06/04 02:17:45;;;;;;;6.30;5.13;;;17.80;99.90;;;;;;4999023;28;20513;-42
2022/06/04 02:20:14;;;;;;;5.77;4.93;;;17.80;99.90;;;;;;4998446;28;20471;-50
2022/06/04 02:22:42;;;;;;;4.80;4.40;;;17.80;99.90;;;;;;4998484;28;20481;-45
2022/06/04 02:25:12;;;;;;;4.53;4.17;;;18.00;99.90;;;;;;4998285;28;20689;-48
2022/06/04 02:27:40;;;;;;;4.63;4.17;;;18.00;99.90;;;;;;4998421;28;20443;-46
2022/06/04 02:30:11;;;;;;;4.80;4.30;;;17.90;99.90;;;;;;4998448;28;20447;-49
2022/06/04 02:32:50;;;;;;;7.80;4.40;;;17.90;99.90;;;;;;4997712;28;20462;-48
2022/06/04 02:35:34;;;;;;;4.57;4.17;;;17.80;99.90;;;;;;4997698;28;20478;-47
2022/06/04 02:38:16;;;;;;;4.30;3.90;;;17.80;99.90;;;;;;4997435;28;20447;-44
2022/06/04 02:40:51;;;;;;;4.30;3.80;;;17.90;99.90;;;;;;4998058;28;20573;-45
2022/06/04 02:43:18;;;;;;;5.17;4.67;;;17.90;99.90;;;;;;5000982;28;21018;-47
2022/06/04 02:46:17;;;;;;;4.60;4.20;;;18.00;99.90;;;;;;5001467;28;20510;-45
2022/06/04 02:48:52;;;;;;;7.33;4.10;;;18.20;99.90;;;;;;4970191;28;20510;-45
2022/06/04 02:51:40;;;;;;;4.70;4.30;;;18.40;99.90;;;;;;4997616;28;20450;-47
2022/06/04 02:54:18;;;;;;;6.43;4.33;;;18.40;99.90;;;;;;4997959;28;20421;-46
2022/06/04 02:56:48;;;;;;;4.60;4.27;;;18.00;99.90;;;;;;4998321;28;20752;-43
2022/06/04 02:59:18;;;;;;;4.73;4.20;;;17.80;99.90;;;;;;4993756;28;20447;-43
2022/06/04 03:01:51;;;;;;;4.83;4.40;;;17.70;99.90;;;;;;4997477;28;20545;-46
2022/06/04 03:04:19;;;;;;;6.53;4.33;;;17.60;99.90;;;;;;4998260;28;20586;-47
2022/06/04 03:06:47;;;;;;;8.93;4.70;;;17.40;99.90;;;;;;4991978;28;20453;-47
2022/06/04 03:09:17;;;;;;;4.53;4.20;;;17.30;99.90;;;;;;4997342;28;20430;-45
2022/06/04 03:11:49;;;;;;;5.33;4.77;;;17.50;99.90;;;;;;4997094;28;20510;-48
2022/06/04 03:14:18;;;;;;;4.73;4.43;;;17.80;99.90;;;;;;4997926;28;20457;-48
2022/06/04 03:16:47;;;;;;;5.53;4.37;;;17.70;99.90;;;;;;4997603;28;20701;-48
2022/06/04 03:19:15;;;;;;;9.13;4.80;;;17.60;99.90;;;;;;4997838;28;20754;-43
2022/06/04 03:21:43;;;;;;;4.80;4.40;;;17.40;99.90;;;;;;4997405;28;20756;-45
2022/06/04 03:24:12;;;;;;;6.10;4.90;;;17.40;99.90;;;;;;4996967;28;20452;-42
2022/06/04 03:26:41;;;;;;;4.47;4.07;;;17.60;99.90;;;;;;4997232;28;20432;-44
2022/06/04 03:29:09;;;;;;;5.23;4.70;;;17.70;99.90;;;;;;4997268;28;20418;-45
2022/06/04 03:31:39;;;;;;;4.83;4.30;;;18.10;99.90;;;;;;4996411;28;20450;-49
2022/06/04 03:34:07;;;;;;;6.03;5.30;;;17.80;99.90;;;;;;4996345;28;20428;-47
2022/06/04 03:36:36;;;;;;;4.70;4.40;;;17.50;99.90;;;;;;4996709;28;20522;-46
2022/06/04 03:39:05;;;;;;;5.33;5.00;;;17.40;99.90;;;;;;4996836;28;20450;-46
2022/06/04 03:41:37;;;;;;;5.37;4.87;;;17.30;99.90;;;;;;4996933;28;20513;-41
2022/06/04 03:44:05;;;;;;;4.60;4.30;;;17.40;99.90;;;;;;4996955;28;20749;-48
2022/06/04 03:46:33;;;;;;;5.00;4.60;;;17.50;99.90;;;;;;4996989;28;20755;-45
2022/06/04 03:49:00;;;;;;;5.33;4.80;;;17.60;99.90;;;;;;4997156;28;20502;-42
2022/06/04 03:51:29;;;;;;;4.83;4.43;;;17.70;99.90;;;;;;4990854;28;20502;-43
2022/06/04 03:53:57;;;;;;;4.63;4.23;;;17.60;99.90;;;;;;4999473;28;20829;-44
2022/06/04 03:56:27;;;;;;;5.60;4.53;;;17.70;99.90;;;;;;4997439;28;20768;-47
2022/06/04 03:58:54;;;;;;;8.03;4.97;;;17.60;99.90;;;;;;4992832;28;20540;-48
2022/06/04 04:01:25;;;;;;;6.03;5.13;;;17.50;99.90;;;;;;4996689;28;20543;-42
2022/06/04 04:04:00;;;;;;;5.10;4.70;;;17.40;99.90;;;;;;4996384;28;20898;-49
2022/06/04 04:06:31;;;;;;;4.87;4.47;;;17.40;99.90;;;;;;4994764;28;20785;-48
2022/06/04 04:08:59;;;;;;;5.03;4.63;;;17.50;99.90;;;;;;4996247;28;20522;-50
2022/06/04 04:11:27;;;;;;;5.53;5.13;;;17.60;99.90;;;;;;4996766;28;20478;-44
2022/06/04 04:13:58;;;;;;;4.80;4.20;;;18.10;99.90;;;;;;4995864;28;20451;-44
2022/06/04 04:16:25;;;;;;;8.30;6.20;;;18.10;99.90;;;;;;4996274;28;20763;-49
2022/06/04 04:18:52;;;;;;;4.83;4.43;;;18.10;99.90;;;;;;4996040;28;20723;-44
2022/06/04 04:21:23;;;;;;;5.47;4.40;;;18.20;99.90;;;;;;4996409;28;20447;-47
2022/06/04 04:23:51;;;;;;;5.60;5.20;;;18.50;99.90;;;;;;4996170;28;20438;-48
2022/06/04 04:26:19;;;;;;;7.10;5.00;;;18.60;99.90;;;;;;4996687;28;20498;-41
2022/06/04 04:28:46;;;;;;;5.03;4.60;;;18.60;99.90;;;;;;4995767;28;20451;-50
2022/06/04 04:31:17;;;;;;;6.70;5.60;;;18.70;99.90;;;;;;4996265;28;20591;-45
2022/06/04 04:33:44;;;;;;;5.90;5.30;;;18.80;99.90;;;;;;4996056;28;20503;-47
2022/06/04 04:36:12;;;;;;;5.77;5.37;;;18.50;99.90;;;;;;4996102;28;20517;-48
2022/06/04 04:38:45;;;;;;;5.43;5.03;;;18.20;99.90;;;;;;4993427;28;20450;-47
2022/06/04 04:41:15;;;;;;;6.20;5.70;;;18.20;99.90;;;;;;4989695;28;20559;-46
2022/06/04 04:43:42;;;;;;;5.87;5.37;;;18.20;99.90;;;;;;4991519;28;20433;-48
2022/06/04 04:46:12;;;;;;;8.03;6.00;;;18.20;99.90;;;;;;4989755;28;20479;-46
2022/06/04 04:48:41;;;;;;;6.43;5.80;;;18.20;99.90;;;;;;4991809;28;20789;-49
2022/06/04 04:51:20;;;;;;;9.17;6.23;;;18.40;99.90;;;;;;4989522;28;20662;-50
2022/06/04 04:53:52;;;;;;;7.93;6.20;;;17.90;99.90;;;;;;4990496;28;20528;-49
2022/06/04 04:56:21;;;;;;;8.13;7.40;;;17.70;99.90;;;;;;4992294;28;20452;-44
2022/06/04 04:58:49;;;;;;;10.17;7.87;;;17.80;99.90;;;;;;4988694;28;20665;-45
2022/06/04 05:01:24;;;;;;;8.70;7.93;;;17.80;99.90;;;;;;4990454;28;20450;-48
2022/06/04 05:03:53;;;;;;;7.23;6.60;;;17.70;99.90;;;;;;4990826;28;20448;-50
2022/06/04 05:06:28;;;;;;;7.67;6.87;;;17.70;99.90;;;;;;4989917;28;20406;-41
2022/06/04 05:08:56;;;;;;;8.93;8.03;;;17.80;99.90;;;;;;4989831;28;20697;-48
2022/06/04 05:11:29;;;;;;;9.03;8.23;;;17.80;99.90;;;;;;4991546;28;20448;-43
2022/06/04 05:14:00;;;;;;;9.07;8.20;;;17.60;99.90;;;;;;4988449;28;21006;-43
2022/06/04 05:16:31;;;;;;;12.03;8.57;;;17.50;99.90;;;;;;4992246;28;20450;-46
2022/06/04 05:19:01;;;;;;;10.50;9.53;;;17.50;99.90;;;;;;4996128;28;20678;-45
2022/06/04 05:21:40;;;;;;;11.23;9.47;;;17.50;99.90;;;;;;4997131;28;20478;-51
2022/06/04 05:24:15;;;;;;;10.77;9.67;;;17.50;99.90;;;;;;4996340;28;20526;-46
2022/06/04 05:26:42;;;;;;;10.97;9.93;;;17.30;99.90;;;;;;5000602;28;20426;-46
2022/06/04 05:29:10;;;;;;;10.87;9.50;;;16.90;99.90;;;;;;4999890;28;20616;-44
2022/06/04 05:31:39;;;;;;;11.37;10.27;;;16.50;99.90;;;;;;5001184;28;20480;-47
2022/06/04 05:34:08;;;;;;;11.93;10.73;;;16.40;99.90;;;;;;5000410;28;20638;-44
2022/06/04 05:36:37;;;;;;;12.77;11.00;;;16.50;99.90;;;;;;5000496;28;20465;-42
2022/06/04 05:39:06;;;;;;;11.50;10.30;;;16.80;99.90;;;;;;4996259;28;20515;-44
2022/06/04 05:41:34;;;;;;;10.37;9.50;;;16.60;99.90;;;;;;4992169;28;20428;-44
2022/06/04 05:44:01;;;;;;;14.63;11.57;;;16.40;99.90;;;;;;4998973;28;20850;-45
2022/06/04 05:46:29;;;;;;;13.10;11.90;;;16.40;99.90;;;;;;4998243;28;20477;-43
2022/06/04 05:48:56;;;;;;;12.40;11.07;;;16.80;99.90;;;;;;4999377;28;20786;-46
2022/06/04 05:51:26;;;;;;;16.30;12.57;;;17.00;99.90;;;;;;4997763;28;20627;-50
2022/06/04 05:53:54;;;;;;;14.40;13.07;;;16.80;99.90;;;;;;4998996;28;20459;-44
2022/06/04 05:56:27;;;;;;;14.17;12.73;;;17.00;99.90;;;;;;4998713;28;20453;-44
2022/06/04 05:59:02;;;;;;;13.87;12.47;;;17.20;99.90;;;;;;4994727;28;20452;-47
2022/06/04 06:01:32;;;;;;;13.00;11.67;;;17.50;99.90;;;;;;4997083;28;20428;-48
2022/06/04 06:04:00;;;;;;;13.20;11.83;;;17.50;99.90;;;;;;4998497;28;20450;-44
2022/06/04 06:06:33;;;;;;;11.97;10.87;;;17.50;99.90;;;;;;4998600;28;20536;-44
2022/06/04 06:09:05;;;;;;;13.53;11.77;;;17.50;99.90;;;;;;4999590;28;20421;-47
2022/06/04 06:11:33;;;;;;;13.73;12.30;;;17.20;99.90;;;;;;4996781;28;20543;-43
2022/06/04 06:14:00;;;;;;;13.17;11.90;;;17.50;99.90;;;;;;5000305;28;20537;-43
2022/06/04 06:16:32;;;;;;;13.03;11.80;;;17.80;99.90;;;;;;4995447;28;20550;-43
2022/06/04 06:18:59;;;;;;;13.20;11.90;;;18.00;99.90;;;;;;4999046;28;20767;-43
2022/06/04 06:21:30;;;;;;;11.37;10.33;;;17.90;99.90;;;;;;4998238;28;20774;-53
2022/06/04 06:23:58;;;;;;;12.20;10.97;;;17.60;99.90;;;;;;4997054;28;20500;-44
2022/06/04 06:26:30;;;;;;;12.70;11.50;;;17.50;99.90;;;;;;4999907;28;20487;-46
2022/06/04 06:29:00;;;;;;;13.97;12.60;;;17.60;99.90;;;;;;4997865;28;20443;-44
2022/06/04 06:31:28;;;;;;;13.30;11.50;;;17.70;99.90;;;;;;4986799;28;20454;-50
2022/06/04 06:33:56;;;;;;;15.10;12.37;;;17.70;99.90;;;;;;5001961;28;20438;-48
2022/06/04 06:36:24;;;;;;;13.97;12.57;;;17.90;99.90;;;;;;4996492;28;20759;-47
2022/06/04 06:38:51;;;;;;;13.73;12.43;;;18.20;99.90;;;;;;4997510;28;20648;-48
2022/06/04 06:41:23;;;;;;;11.63;10.47;;;18.80;99.90;;;;;;4998352;28;20521;-46
2022/06/04 06:43:50;;;;;;;11.20;10.10;;;19.30;99.90;;;;;;4997672;28;20438;-44
2022/06/04 06:46:24;;;;;;;13.90;11.53;;;19.60;99.90;;;;;;4932200;28;20578;-46
2022/06/04 06:48:55;;;;;;;11.50;10.43;;;19.80;99.90;;;;;;4994764;28;20741;-44
2022/06/04 06:51:28;;;;;;;12.17;10.97;;;19.70;99.90;;;;;;4997259;28;20781;-46
2022/06/04 06:53:55;;;;;;;13.33;11.97;;;19.80;99.90;;;;;;4992319;28;20439;-43
2022/06/04 06:56:29;;;;;;;14.63;13.13;;;20.00;99.90;;;;;;4983511;28;20488;-44
2022/06/04 06:58:58;;;;;;;12.30;11.10;;;19.70;99.90;;;;;;4981955;28;20733;-50
2022/06/04 07:01:26;;;;;;;13.53;11.77;;;19.80;99.90;;;;;;4983305;28;20498;-49
2022/06/04 07:03:55;;;;;;;11.50;10.50;;;19.60;99.90;;;;;;4981646;28;20618;-47
2022/06/04 07:06:34;;;;;;;14.27;11.40;;;19.60;99.90;;;;;;4985814;28;20487;-47
2022/06/04 07:09:06;;;;;;;11.90;10.70;;;19.60;99.90;;;;;;4982633;28;20446;-48
2022/06/04 07:11:33;;;;;;;14.27;12.10;;;19.60;99.90;;;;;;4987313;28;20454;-50
2022/06/04 07:14:01;;;;;;;11.90;10.70;;;19.50;99.90;;;;;;4988833;28;20491;-47
2022/06/04 07:16:28;;;;;;;12.17;10.93;;;19.80;99.90;;;;;;4986776;28;20422;-47
2022/06/04 07:18:56;;;;;;;13.40;12.07;;;19.80;99.90;;;;;;4989250;28;20427;-45
2022/06/04 07:21:24;;;;;;;13.10;11.80;;;19.80;99.90;;;;;;4992512;28;20669;-44
2022/06/04 07:23:51;;;;;;;12.70;11.07;;;19.70;99.90;;;;;;4996728;28;20434;-44
2022/06/04 07:26:19;;;;;;;11.47;10.37;;;20.00;99.90;;;;;;4991857;28;20487;-43
2022/06/04 07:28:47;;;;;;;10.40;9.23;;;20.10;99.90;;;;;;4992127;28;20745;-45
2022/06/04 07:31:16;;;;;;;12.53;10.97;;;20.10;99.90;;;;;;4991185;28;20451;-43
2022/06/04 07:33:46;;;;;;;11.53;10.43;;;20.20;99.90;;;;;;4995853;28;20458;-43
2022/06/04 07:36:20;;;;;;;11.77;9.63;;;20.10;99.90;;;;;;4996473;28;20485;-45
2022/06/04 07:38:47;;;;;;;12.17;10.97;;;20.40;99.90;;;;;;4996477;28;20451;-45
2022/06/04 07:41:23;;;;;;;12.27;11.07;;;20.70;99.90;;;;;;4996516;28;20711;-48
2022/06/04 07:43:50;;;;;;;11.47;10.23;;;21.00;99.90;;;;;;4995791;28;20798;-46
2022/06/04 07:46:19;;;;;;;12.90;9.73;;;21.30;99.90;;;;;;4996271;28;20451;-43
2022/06/04 07:48:46;;;;;;;10.73;9.73;;;21.70;99.90;;;;;;4995077;28;20423;-45
2022/06/04 07:51:15;;;;;;;12.03;11.00;;;22.00;99.90;;;;;;4996168;28;20423;-46
2022/06/04 07:53:43;;;;;;;10.30;9.27;;;22.20;99.90;;;;;;4979138;28;20472;-47
2022/06/04 07:56:16;;;;;;;10.67;9.70;;;22.50;99.90;;;;;;4982617;28;20485;-45
2022/06/04 07:58:47;;;;;;;10.07;9.00;;;22.80;99.90;;;;;;4992366;28;20448;-48
2022/06/04 08:01:19;;;;;;;11.47;10.33;;;22.80;99.90;;;;;;4996563;28;20610;-45
2022/06/04 08:03:48;;;;;;;11.10;10.10;;;22.70;99.90;;;;;;5007300;28;20439;-47
2022/06/04 08:06:17;;;;;;;10.30;9.33;;;22.60;99.90;;;;;;4997137;28;20932;-45
2022/06/04 08:08:49;;;;;;;13.20;9.77;;;22.80;99.90;;;;;;4992887;28;20504;-44
2022/06/04 08:11:34;;;;;;;9.67;8.67;;;23.10;99.90;;;;;;5108566;27;20522;-41
2022/06/04 08:14:13;;;;;;;9.73;8.83;;;22.90;99.90;;;;;;5089106;28;20424;-45
2022/06/04 08:16:45;;;;;;;11.10;9.97;;;23.30;99.90;;;;;;5093628;28;20667;-49
2022/06/04 08:19:13;;;;;;;15.80;9.63;;;23.70;99.90;;;;;;5095726;28;20410;-47
2022/06/04 08:21:41;;;;;;;10.00;9.07;;;24.10;99.90;;;;;;5092301;28;20553;-45
2022/06/04 08:24:10;;;;;;;10.57;9.07;;;24.80;99.90;;;;;;5089437;28;20596;-44
2022/06/04 08:26:38;;;;;;;10.47;9.50;;;26.10;99.90;;;;;;5093639;28;20414;-48
2022/06/04 08:29:05;;;;;;;13.07;9.60;;;27.60;99.90;;;;;;5093039;28;20414;-50
2022/06/04 08:31:33;;;;;;;11.13;9.93;;;29.10;99.90;;;;;;5092177;28;20428;-43
2022/06/04 08:34:01;;;;;;;10.87;9.80;;;29.20;99.90;;;;;;5092274;28;20434;-48
2022/06/04 08:36:28;;;;;;;10.77;9.73;;;27.40;99.90;;;;;;5093326;28;20596;-52
2022/06/04 08:38:56;;;;;;;10.20;9.13;;;26.50;99.90;;;;;;5092416;28;20715;-45
2022/06/04 08:41:32;;;;;;;9.53;8.10;;;26.40;99.90;;;;;;5092142;28;20499;-45
2022/06/04 08:44:17;;;;;;;10.77;9.67;;;25.80;99.90;;;;;;5090984;28;20448;-46
2022/06/04 08:47:16;;;;;;;10.60;9.50;;;26.00;99.90;;;;;;5086521;28;20983;-41
2022/06/04 08:50:01;;;;;;;12.80;9.70;;;26.20;99.90;;;;;;5086489;28;20494;-47
2022/06/04 08:52:32;;;;;;;11.20;9.17;;;26.70;99.90;;;;;;5091287;28;20512;-47
2022/06/04 08:58:14;;;;;;;10.80;9.60;;;27.90;99.90;;;;;;5091050;28;20431;-49
2022/06/04 09:00:52;;;;;;;12.33;9.10;;;29.30;99.90;;;;;;5099611;28;20758;-44
2022/06/04 09:03:31;;;;;;;8.53;7.83;;;29.20;99.90;;;;;;5097167;28;20434;-47
2022/06/04 09:06:37;;;;;;;11.17;8.87;;;27.70;99.90;;;;;;5098819;28;20500;-46
2022/06/04 09:09:23;;;;;;;11.30;9.57;;;26.50;99.90;;;;;;5086773;28;20426;-44
2022/06/04 09:12:18;;;;;;;10.10;9.10;;;25.80;99.90;;;;;;5102925;28;20410;-49
2022/06/04 09:14:57;;;;;;;11.70;8.83;;;25.40;99.90;;;;;;5092254;28;20508;-47
2022/06/04 09:17:46;;;;;;;11.57;10.00;;;25.10;99.90;;;;;;5099667;28;20508;-45
2022/06/04 09:20:17;;;;;;;12.73;9.33;;;24.80;99.90;;;;;;5096957;28;20439;-47
2022/06/04 09:22:47;;;;;;;10.33;9.43;;;25.10;99.90;;;;;;5084584;28;20460;-47
2022/06/04 09:25:16;;;;;;;11.00;9.33;;;25.50;99.90;;;;;;5081781;28;20412;-49
2022/06/04 09:27:58;;;;;;;12.63;9.60;;;26.00;99.90;;;;;;5084369;28;20435;-50
2022/06/04 09:30:39;;;;;;;10.00;8.60;;;26.50;99.90;;;;;;5088239;28;20464;-47
2022/06/04 09:33:31;;;;;;;11.50;10.17;;;26.70;99.90;;;;;;5081689;28;20466;-45
2022/06/04 09:35:59;;;;;;;11.10;9.33;;;26.40;99.90;;;;;;5075949;28;20423;-49
2022/06/04 09:38:29;;;;;;;15.70;8.60;;;26.30;99.90;;;;;;5082982;28;20448;-43
2022/06/04 09:41:05;;;;;;;10.53;9.43;;;24.90;99.90;;;;;;5082718;28;20871;-48
2022/06/04 09:43:33;;;;;;;11.50;10.43;;;24.90;99.90;;;;;;5076833;28;20426;-49
2022/06/04 09:46:06;;;;;;;10.70;9.70;;;25.30;99.90;;;;;;5089304;28;20466;-46
2022/06/04 09:48:42;;;;;;;9.50;8.70;;;25.90;99.90;;;;;;5080582;28;20459;-44
2022/06/04 09:51:20;;;;;;;10.30;9.30;;;26.80;99.90;;;;;;5087724;28;20520;-45
2022/06/04 09:54:03;;;;;;;9.90;9.00;;;26.90;99.90;;;;;;5080286;28;20493;-43
2022/06/04 09:56:41;;;;;;;9.13;8.17;;;27.00;99.90;;;;;;5076184;28;20507;-48
2022/06/04 09:59:24;;;;;;;8.97;8.13;;;27.00;99.90;;;;;;5078532;28;20412;-48
2022/06/04 10:01:58;;;;;;;9.80;8.90;;;26.70;99.90;;;;;;5074208;28;20800;-47
2022/06/04 10:04:47;;;;;;;9.27;8.27;;;26.90;99.90;;;;;;5082739;28;20439;-47
2022/06/04 10:07:27;;;;;;;10.53;9.37;;;26.70;99.90;;;;;;5080252;28;20821;-50
2022/06/04 10:09:58;;;;;;;6.93;6.33;;;26.40;99.90;;;;;;5084954;28;20470;-46
2022/06/04 10:15:34;;;;;;;13.03;7.53;;;26.20;99.90;;;;;;5074967;28;20445;-45
2022/06/04 10:18:23;;;;;;;6.90;5.77;;;26.40;99.90;;;;;;5085189;28;20490;-47
2022/06/04 10:21:03;;;;;;;5.53;5.00;;;26.00;99.90;;;;;;5076334;28;20436;-45
2022/06/04 10:23:44;;;;;;;6.67;6.07;;;25.40;99.90;;;;;;5081513;28;20463;-48
2022/06/04 10:26:29;;;;;;;5.90;5.40;;;24.50;99.90;;;;;;5080934;28;20433;-44
2022/06/04 10:29:19;;;;;;;10.70;6.63;;;24.90;99.90;;;;;;5080659;28;20638;-47
2022/06/04 10:32:16;;;;;;;7.17;5.23;;;25.90;99.90;;;;;;5077405;28;20454;-44
2022/06/04 10:35:16;;;;;;;6.03;5.53;;;25.90;99.90;;;;;;5081102;28;20436;-46
2022/06/04 10:38:24;;;;;;;5.90;5.40;;;24.60;99.90;;;;;;5081539;28;20503;-45
2022/06/04 10:41:31;;;;;;;4.90;4.50;;;24.80;99.90;;;;;;5072368;28;20472;-44
2022/06/04 10:44:19;;;;;;;8.07;5.40;;;24.90;99.90;;;;;;5083373;28;20458;-48
2022/06/04 10:46:59;;;;;;;5.83;5.30;;;24.80;99.90;;;;;;5079535;28;20625;-47
2022/06/04 10:49:36;;;;;;;5.00;4.53;;;25.00;99.90;;;;;;5081790;28;20439;-44
2022/06/04 10:52:26;;;;;;;5.00;4.50;;;25.40;99.90;;;;;;5084382;28;20677;-45
2022/06/04 10:55:19;;;;;;;4.33;3.93;;;25.50;99.90;;;;;;5081360;28;20432;-42
2022/06/04 10:58:08;;;;;;;4.63;3.90;;;26.10;99.90;;;;;;5071466;28;20748;-48
2022/06/04 11:00:47;;;;;;;6.80;4.87;;;26.90;99.90;;;;;;5077044;28;20442;-47
2022/06/04 11:03:45;;;;;;;5.97;5.30;;;26.60;99.90;;;;;;5083442;28;20814;-49
2022/06/04 11:06:12;;;;;;;4.40;4.00;;;26.70;99.90;;;;;;5087669;28;20454;-49
2022/06/04 11:08:51;;;;;;;5.00;4.70;;;26.10;99.90;;;;;;5083659;28;20444;-49
2022/06/04 11:11:36;;;;;;;6.10;5.50;;;25.60;99.90;;;;;;5087030;28;20489;-44
2022/06/04 11:14:14;;;;;;;5.40;5.00;;;26.20;99.90;;;;;;5082443;28;20634;-46
2022/06/04 11:16:50;;;;;;;5.10;4.67;;;26.60;99.90;;;;;;5084251;28;20458;-47
2022/06/04 11:19:28;;;;;;;6.10;5.50;;;26.90;99.90;;;;;;5079128;28;20422;-44
2022/06/04 11:22:37;;;;;;;4.30;4.00;;;26.80;99.90;;;;;;5085078;28;20435;-47
2022/06/04 11:25:14;;;;;;;4.37;4.07;;;26.10;99.90;;;;;;5076016;28;20583;-46
2022/06/04 11:27:49;;;;;;;4.10;3.80;;;25.80;99.90;;;;;;5081512;28;20510;-49
2022/06/04 11:30:21;;;;;;;4.97;4.50;;;25.50;99.90;;;;;;5085613;28;20460;-45
2022/06/04 11:33:09;;;;;;;4.40;4.03;;;25.90;99.90;;;;;;5080541;28;20456;-47
2022/06/04 11:35:46;;;;;;;4.40;4.10;;;26.40;99.90;;;;;;5083217;28;20430;-45
2022/06/04 11:38:30;;;;;;;4.63;4.23;;;26.70;99.90;;;;;;5079880;28;20417;-45
2022/06/04 11:41:24;;;;;;;4.80;4.40;;;26.70;99.90;;;;;;5072004;28;20798;-47
2022/06/04 11:44:07;;;;;;;5.03;4.67;;;27.50;99.90;;;;;;5079590;28;20464;-45
2022/06/04 11:46:51;;;;;;;5.57;5.17;;;27.40;99.90;;;;;;5075789;28;20877;-46
2022/06/04 11:49:42;;;;;;;3.93;3.63;;;27.40;99.90;;;;;;5079464;28;20445;-44
2022/06/04 11:52:28;;;;;;;3.70;3.40;;;27.60;99.90;;;;;;5082999;28;20513;-47
2022/06/04 11:55:22;;;;;;;4.47;4.07;;;28.20;99.90;;;;;;5079553;28;20414;-45
2022/06/04 11:58:21;;;;;;;8.07;4.57;;;28.00;99.90;;;;;;5074338;28;20416;-44
2022/06/04 12:00:49;;;;;;;6.10;5.57;;;27.40;99.90;;;;;;5069942;28;20453;-45
2022/06/04 12:03:34;;;;;;;4.43;4.03;;;27.40;99.90;;;;;;5080782;28;20748;-47
2022/06/04 12:06:34;;;;;;;4.33;4.03;;;27.50;99.90;;;;;;5080859;28;20446;-48
2022/06/04 12:09:25;;;;;;;4.20;3.90;;;26.80;99.90;;;;;;5072511;28;20471;-47
2022/06/04 12:12:19;;;;;;;4.40;4.10;;;26.30;99.90;;;;;;5071398;28;20474;-47
2022/06/04 12:15:25;;;;;;;4.30;4.00;;;26.50;99.90;;;;;;5072959;28;20709;-44
2022/06/04 12:17:57;;;;;;;4.23;3.43;;;26.90;99.90;;;;;;5064442;28;20440;-44
2022/06/04 12:26:32;;;;;;;4.57;3.80;;;27.50;99.90;;;;;;5076522;28;20477;-51
2022/06/04 12:29:01;;;;;;;3.90;3.60;;;27.40;99.90;;;;;;5076210;28;20503;-50
2022/06/04 12:31:36;;;;;;;3.97;3.73;;;27.40;99.90;;;;;;5070645;28;20485;-48
2022/06/04 12:34:37;;;;;;;3.80;3.50;;;26.70;99.90;;;;;;5076291;28;20450;-44
2022/06/04 12:37:19;;;;;;;4.03;3.63;;;26.70;99.90;;;;;;5071876;28;20465;-43
2022/06/04 12:39:47;;;;;;;4.67;3.90;;;26.60;99.90;;;;;;5075689;28;20463;-46
2022/06/04 12:42:24;;;;;;;3.83;3.53;;;27.10;99.90;;;;;;5075676;28;20464;-45
2022/06/04 12:45:32;;;;;;;5.30;4.10;;;27.00;99.90;;;;;;5075608;28;20439;-49
2022/06/04 12:48:00;;;;;;;4.63;4.23;;;26.50;99.90;;;;;;5072213;28;20749;-48
2022/06/04 12:50:36;;;;;;;4.10;3.57;;;26.40;99.90;;;;;;5072656;28;20482;-51
2022/06/04 12:53:13;;;;;;;5.13;4.50;;;26.40;99.90;;;;;;5075704;28;20459;-53
2022/06/04 12:55:57;;;;;;;5.10;4.70;;;26.30;99.90;;;;;;5072450;28;20636;-44
2022/06/04 12:58:48;;;;;;;4.40;4.00;;;25.80;99.90;;;;;;5079164;28;20424;-51
2022/06/04 13:01:18;;;;;;;8.73;5.40;;;25.00;99.90;;;;;;5087191;28;20434;-49
2022/06/04 13:03:50;;;;;;;6.10;4.87;;;25.00;99.90;;;;;;5081327;28;20465;-48
2022/06/04 13:06:55;;;;;;;4.40;4.10;;;25.00;99.90;;;;;;5085419;28;20425;-49
2022/06/04 13:10:09;;;;;;;3.63;3.40;;;24.80;99.90;;;;;;5082082;28;20465;-47
2022/06/04 13:12:59;;;;;;;4.60;4.27;;;24.70;99.90;;;;;;5070002;28;20748;-51
2022/06/04 13:15:35;;;;;;;4.90;4.13;;;24.50;99.90;;;;;;5091725;28;20462;-46
2022/06/04 13:18:02;;;;;;;4.30;4.00;;;24.40;99.90;;;;;;5094638;28;20421;-49
2022/06/04 13:20:48;;;;;;;4.73;4.33;;;24.40;99.90;;;;;;5092765;28;20445;-46
2022/06/04 13:23:18;;;;;;;6.33;4.10;;;24.20;99.90;;;;;;5076757;28;20862;-50
2022/06/04 13:26:06;;;;;;;4.70;4.30;;;24.00;99.90;;;;;;5075872;28;20453;-47
2022/06/04 13:28:35;;;;;;;3.90;3.60;;;23.90;99.90;;;;;;5078717;28;20424;-50
2022/06/04 13:31:14;;;;;;;3.70;3.40;;;23.60;99.90;;;;;;5078608;28;20487;-49
2022/06/04 13:33:41;;;;;;;4.70;4.30;;;23.40;99.90;;;;;;5078913;28;20426;-48
2022/06/04 13:36:10;;;;;;;4.50;4.10;;;23.30;99.90;;;;;;5078891;28;20436;-44
2022/06/04 13:38:42;;;;;;;5.37;4.87;;;23.20;99.90;;;;;;5078808;28;20522;-44
2022/06/04 13:44:35;;;;;;;4.87;4.33;;;23.20;99.90;;;;;;5078624;28;20520;-47
2022/06/04 13:47:15;;;;;;;4.50;4.20;;;23.10;99.90;;;;;;5086451;28;20414;-45